createdAt,value
2023-12-08T00:01:45.134Z,97156.13
2023-12-08T00:04:30.612Z,97158.69
2023-12-08T00:07:16.042Z,97155.84
2023-12-08T00:10:01.503Z,97144.56
2023-12-08T00:12:47.152Z,97134.66
2023-12-08T00:15:32.648Z,97136.50
2023-12-08T00:18:18.385Z,97148.75
2023-12-08T00:21:04.156Z,97145.47
2023-12-08T00:23:50.388Z,97141.81
2023-12-08T00:26:36.068Z,97139.78
2023-12-08T00:29:21.605Z,97139.19
2023-12-08T00:32:07.218Z,97125.50
2023-12-08T00:34:52.849Z,97123.19
2023-12-08T00:37:38.330Z,97118.25
2023-12-08T00:40:23.948Z,97111.25
2023-12-08T00:43:09.485Z,97113.63
2023-12-08T00:45:55.042Z,97113.63
2023-12-08T00:48:40.388Z,97114.56
2023-12-08T00:51:26.534Z,97102.75
2023-12-08T00:54:12.501Z,97103.88
2023-12-08T00:56:58.051Z,97098.16
2023-12-08T00:59:43.709Z,97089.75
2023-12-08T01:02:29.145Z,97096.75
2023-12-08T01:05:14.704Z,97094.81
2023-12-08T01:08:00.580Z,97089.63
2023-12-08T01:10:46.283Z,97081.22
2023-12-08T01:13:31.803Z,97082.66
2023-12-08T01:16:17.327Z,97080.88
2023-12-08T01:19:02.969Z,97083.47
2023-12-08T01:21:49.075Z,97080.19
2023-12-08T01:24:36.657Z,97086.59
2023-12-08T01:27:23.358Z,97091.94
2023-12-08T01:30:09.934Z,97095.66
2023-12-08T01:32:57.238Z,97097.28
2023-12-08T01:35:43.267Z,97104.25
2023-12-08T01:38:29.813Z,97098.53
2023-12-08T01:41:16.729Z,97107.06
2023-12-08T01:44:02.359Z,97101.81
2023-12-08T01:46:48.142Z,97097.59
2023-12-08T01:49:35.392Z,97103.47
2023-12-08T01:52:24.671Z,97089.31
2023-12-08T01:55:11.369Z,97085.53
2023-12-08T01:57:56.861Z,97086.88
2023-12-08T02:00:46.713Z,97092.41
2023-12-08T02:03:36.698Z,97087.28
2023-12-08T02:06:22.438Z,97087.28
2023-12-08T02:09:09.276Z,97082.16
2023-12-08T02:11:58.237Z,97084.53
2023-12-08T02:14:46.290Z,97078.47
2023-12-08T02:17:36.552Z,97064.75
2023-12-08T02:20:22.496Z,97054.25
2023-12-08T02:23:08.449Z,97044.00
2023-12-08T02:25:54.203Z,97037.22
2023-12-08T02:28:39.658Z,97029.03
2023-12-08T02:31:42.200Z,97027.50
2023-12-08T02:34:29.721Z,97034.38
2023-12-08T02:37:16.348Z,97029.25
2023-12-08T02:40:03.824Z,97027.41
2023-12-08T02:42:49.817Z,97017.13
2023-12-08T02:45:35.335Z,97002.59
2023-12-08T02:48:21.093Z,96980.53
2023-12-08T02:51:07.763Z,96962.00
2023-12-08T02:53:54.051Z,96948.06
2023-12-08T02:56:39.442Z,96947.81
2023-12-08T02:59:24.930Z,96954.78
2023-12-08T03:02:10.424Z,96941.16
2023-12-08T03:04:56.073Z,96940.13
2023-12-08T03:07:41.470Z,96924.38
2023-12-08T03:10:27.208Z,96918.34
2023-12-08T03:13:12.705Z,96934.81
2023-12-08T03:15:58.361Z,96933.91
2023-12-08T03:18:43.972Z,96937.94
2023-12-08T03:21:29.848Z,96943.38
2023-12-08T03:24:15.446Z,96943.47
2023-12-08T03:27:01.201Z,96951.06
2023-12-08T03:29:47.420Z,96955.16
2023-12-08T03:32:33.733Z,96955.88
2023-12-08T03:35:21.683Z,96957.41
2023-12-08T03:38:07.448Z,96968.25
2023-12-08T03:40:53.083Z,96953.50
2023-12-08T03:43:38.818Z,96964.34
2023-12-08T03:46:24.546Z,96962.28
2023-12-08T03:49:10.588Z,96962.16
2023-12-08T03:51:58.913Z,96955.91
2023-12-08T03:54:44.678Z,96948.72
2023-12-08T03:57:29.984Z,96945.84
2023-12-08T04:00:16.195Z,96948.06
2023-12-08T04:03:02.101Z,96951.22
2023-12-08T04:05:47.879Z,96959.53
2023-12-08T04:08:33.255Z,96961.16
2023-12-08T04:11:18.694Z,96970.81
2023-12-08T04:14:04.054Z,96968.06
2023-12-08T04:16:52.114Z,96960.13
2023-12-08T04:19:38.446Z,96955.22
2023-12-08T04:22:24.183Z,96948.34
2023-12-08T04:25:09.719Z,96933.69
2023-12-08T04:27:55.367Z,96928.31
2023-12-08T04:30:40.839Z,96936.53
2023-12-08T04:33:26.505Z,96925.13
2023-12-08T04:36:11.809Z,96917.91
2023-12-08T04:38:57.370Z,96915.00
2023-12-08T04:41:45.029Z,96920.75
2023-12-08T04:44:31.683Z,96908.72
2023-12-08T04:47:17.131Z,96900.22
2023-12-08T04:50:03.450Z,96900.09
2023-12-08T04:52:48.882Z,96891.34
2023-12-08T04:55:36.376Z,96888.78
2023-12-08T04:58:22.334Z,96886.34
2023-12-08T05:01:13.285Z,96877.72
2023-12-08T05:03:59.184Z,96880.19
2023-12-08T05:06:45.217Z,96883.53
2023-12-08T05:09:31.367Z,96881.44
2023-12-08T05:12:16.968Z,96885.41
2023-12-08T05:15:02.469Z,96881.28
2023-12-08T05:17:48.140Z,96877.59
2023-12-08T05:20:34.434Z,96875.03
2023-12-08T05:23:20.190Z,96882.72
2023-12-08T05:26:06.594Z,96895.75
2023-12-08T05:28:52.499Z,96905.31
2023-12-08T05:31:38.394Z,96914.53
2023-12-08T05:34:24.182Z,96911.84
2023-12-08T05:37:11.824Z,96916.75
2023-12-08T05:39:57.376Z,96906.03
2023-12-08T05:42:43.296Z,96907.47
2023-12-08T05:45:28.770Z,96901.16
2023-12-08T05:48:14.621Z,96895.69
2023-12-08T05:51:00.473Z,96898.50
2023-12-08T05:53:46.219Z,96896.41
2023-12-08T05:56:32.625Z,96910.75
2023-12-08T05:59:18.187Z,96906.44
2023-12-08T06:02:04.013Z,96912.16
2023-12-08T06:04:49.749Z,96913.59
2023-12-08T06:07:36.116Z,96918.38
2023-12-08T06:10:24.387Z,96913.72
2023-12-08T06:13:10.027Z,96911.75
2023-12-08T06:15:55.674Z,96912.34
2023-12-08T06:18:41.689Z,96914.91
2023-12-08T06:21:27.997Z,96914.91
2023-12-08T06:24:14.058Z,96919.91
2023-12-08T06:26:59.956Z,96919.13
2023-12-08T06:29:45.784Z,96928.53
2023-12-08T06:32:34.880Z,96923.41
2023-12-08T06:35:20.739Z,96918.75
2023-12-08T06:38:06.084Z,96929.84
2023-12-08T06:40:52.202Z,96924.81
2023-12-08T06:43:37.636Z,96919.59
2023-12-08T06:46:23.097Z,96913.28
2023-12-08T06:49:08.836Z,96903.47
2023-12-08T06:51:54.581Z,96907.09
2023-12-08T06:54:40.090Z,96899.88
2023-12-08T06:57:26.635Z,96906.28
2023-12-08T07:00:13.339Z,96905.34
2023-12-08T07:02:58.920Z,96912.72
2023-12-08T07:05:46.163Z,96918.19
2023-12-08T07:08:32.729Z,96913.41
2023-12-08T07:11:18.541Z,96912.69
2023-12-08T07:14:04.042Z,96907.91
2023-12-08T07:16:49.559Z,96896.22
2023-12-08T07:19:35.438Z,96898.44
2023-12-08T07:22:21.024Z,96898.88
2023-12-08T07:25:08.421Z,96901.91
2023-12-08T07:27:53.842Z,96902.47
2023-12-08T07:30:39.428Z,96892.50
2023-12-08T07:33:25.351Z,96892.59
2023-12-08T07:36:10.955Z,96882.41
2023-12-08T07:38:57.255Z,96885.03
2023-12-08T07:41:46.437Z,96886.66
2023-12-08T07:44:32.212Z,96876.41
2023-12-08T07:47:19.909Z,96876.56
2023-12-08T07:50:07.004Z,96885.19
2023-12-08T07:52:53.329Z,96883.75
2023-12-08T07:55:39.365Z,96901.00
2023-12-08T07:58:24.934Z,96911.22
2023-12-08T08:01:10.559Z,96916.56
2023-12-08T08:03:56.434Z,96922.59
2023-12-08T08:06:45.061Z,96916.66
2023-12-08T08:09:30.674Z,96919.16
2023-12-08T08:12:16.572Z,96925.44
2023-12-08T08:15:02.180Z,96925.88
2023-12-08T08:17:47.522Z,96929.81
2023-12-08T08:20:32.904Z,96939.06
2023-12-08T08:23:18.423Z,96935.97
2023-12-08T08:26:04.449Z,96926.75
2023-12-08T08:28:50.465Z,96935.84
2023-12-08T08:31:35.899Z,96945.09
2023-12-08T08:34:21.658Z,96947.97
2023-12-08T08:37:07.627Z,96948.69
2023-12-08T08:39:53.710Z,96947.34
2023-12-08T08:42:39.486Z,96938.31
2023-12-08T08:45:26.919Z,96930.03
2023-12-08T08:48:12.740Z,96925.13
2023-12-08T08:50:58.511Z,96914.53
2023-12-08T08:53:44.006Z,96909.50
2023-12-08T08:56:29.515Z,96916.56
2023-12-08T08:59:14.912Z,96923.63
2023-12-08T09:02:00.633Z,96932.88
2023-12-08T09:04:46.528Z,96942.25
2023-12-08T09:07:34.281Z,96946.97
2023-12-08T09:10:20.484Z,96948.56
2023-12-08T09:13:06.226Z,96935.75
2023-12-08T09:15:52.752Z,96918.13
2023-12-08T09:18:38.408Z,96907.25
2023-12-08T09:21:23.654Z,96910.66
2023-12-08T09:24:10.405Z,96919.22
2023-12-08T09:26:56.122Z,96934.84
2023-12-08T09:29:41.636Z,96938.94
2023-12-08T09:32:28.699Z,96928.81
2023-12-08T09:35:14.601Z,96922.19
2023-12-08T09:38:00.489Z,96911.25
2023-12-08T09:40:46.855Z,96914.63
2023-12-08T09:43:33.089Z,96917.94
2023-12-08T09:46:19.687Z,96909.31
2023-12-08T09:49:13.339Z,96906.22
2023-12-08T09:51:59.888Z,96891.25
2023-12-08T09:54:45.783Z,96889.41
2023-12-08T09:57:33.438Z,96901.09
2023-12-08T10:00:21.508Z,96899.91
2023-12-08T10:03:08.470Z,96896.44
2023-12-08T10:05:56.647Z,96899.09
2023-12-08T10:08:42.598Z,96883.47
2023-12-08T10:11:28.051Z,96880.41
2023-12-08T10:14:15.427Z,96882.25
2023-12-08T10:17:02.201Z,96881.31
2023-12-08T10:19:48.238Z,96879.75
2023-12-08T10:22:57.956Z,96878.34
2023-12-08T10:25:44.183Z,96863.34
2023-12-08T10:28:29.688Z,96859.94
2023-12-08T10:31:15.262Z,96861.25
2023-12-08T10:34:00.858Z,96865.19
2023-12-08T10:36:46.592Z,96853.81
2023-12-08T10:39:32.196Z,96856.63
2023-12-08T10:42:17.763Z,96862.44
2023-12-08T10:45:07.222Z,96882.97
2023-12-08T10:47:53.844Z,96880.59
2023-12-08T10:50:40.270Z,96878.84
2023-12-08T10:53:26.636Z,96889.75
2023-12-08T10:56:16.902Z,96881.53
2023-12-08T10:59:07.645Z,96873.59
2023-12-08T11:01:55.874Z,96869.09
2023-12-08T11:04:43.805Z,96865.72
2023-12-08T11:07:34.211Z,96850.78
2023-12-08T11:10:19.827Z,96860.22
2023-12-08T11:13:10.136Z,96853.06
2023-12-08T11:16:28.435Z,96860.88
2023-12-08T11:19:15.582Z,96851.16
2023-12-08T11:22:01.273Z,96855.03
2023-12-08T11:24:47.348Z,96857.31
2023-12-08T11:27:44.385Z,96845.75
2023-12-08T11:30:39.987Z,96857.28
2023-12-08T11:33:48.933Z,96853.53
2023-12-08T11:36:34.538Z,96858.09
2023-12-08T11:39:38.420Z,96861.50
2023-12-08T11:42:24.108Z,96876.44
2023-12-08T11:45:14.775Z,96879.03
2023-12-08T11:48:12.391Z,96877.72
2023-12-08T11:51:05.059Z,96887.81
2023-12-08T11:53:57.117Z,96881.94
2023-12-08T11:56:44.753Z,96867.72
2023-12-08T11:59:30.233Z,96875.34
2023-12-08T12:02:15.774Z,96871.44
2023-12-08T12:05:01.969Z,96870.97
2023-12-08T12:07:50.960Z,96869.34
2023-12-08T12:10:38.628Z,96859.72
2023-12-08T12:13:28.655Z,96863.81
2023-12-08T12:16:14.403Z,96872.59
2023-12-08T12:19:00.228Z,96865.25
2023-12-08T12:21:46.220Z,96857.75
2023-12-08T12:24:32.317Z,96860.66
2023-12-08T12:27:18.182Z,96859.66
2023-12-08T12:30:05.076Z,96857.06
2023-12-08T12:32:50.762Z,96854.09
2023-12-08T12:35:37.955Z,96851.19
2023-12-08T12:38:29.032Z,96846.78
2023-12-08T12:41:25.173Z,96844.69
2023-12-08T12:44:10.842Z,96864.88
2023-12-08T12:46:56.271Z,96866.22
2023-12-08T12:49:43.983Z,96865.56
2023-12-08T12:52:31.836Z,96870.78
2023-12-08T12:55:24.923Z,96867.22
2023-12-08T12:58:25.143Z,96860.41
2023-12-08T13:01:12.904Z,96860.06
2023-12-08T13:03:59.691Z,96851.13
2023-12-08T13:06:45.264Z,96852.56
2023-12-08T13:09:30.785Z,96849.78
2023-12-08T13:12:16.172Z,96844.56
2023-12-08T13:15:05.811Z,96848.00
2023-12-08T13:17:52.790Z,96853.88
2023-12-08T13:20:42.108Z,96851.09
2023-12-08T13:23:28.080Z,96847.50
2023-12-08T13:26:13.550Z,96852.06
2023-12-08T13:28:59.063Z,96857.91
2023-12-08T13:31:44.905Z,96856.78
2023-12-08T13:34:30.515Z,96855.78
2023-12-08T13:37:15.925Z,96850.59
2023-12-08T13:40:01.516Z,96853.19
2023-12-08T13:42:47.309Z,96853.19
2023-12-08T13:45:33.686Z,96841.94
2023-12-08T13:48:22.042Z,96846.69
2023-12-08T13:53:59.525Z,96834.50
2023-12-08T13:56:45.243Z,96822.47
2023-12-08T13:59:30.585Z,96836.81
2023-12-08T14:02:16.356Z,96835.38
2023-12-08T14:05:02.154Z,96836.69
2023-12-08T14:07:49.308Z,96842.56
2023-12-08T14:10:34.812Z,96848.91
2023-12-08T14:13:20.275Z,96844.53
2023-12-08T14:16:06.056Z,96849.88
2023-12-08T14:18:51.961Z,96846.66
2023-12-08T14:21:37.855Z,96848.44
2023-12-08T14:24:24.194Z,96849.09
2023-12-08T14:27:09.850Z,96853.50
2023-12-08T14:29:55.129Z,96844.88
2023-12-08T14:32:41.806Z,96848.91
2023-12-08T14:35:31.022Z,96851.53
2023-12-08T14:38:19.485Z,96856.91
2023-12-08T14:41:04.983Z,96859.50
2023-12-08T14:43:50.621Z,96867.47
2023-12-08T14:46:36.268Z,96861.13
2023-12-08T14:49:22.287Z,96862.13
2023-12-08T14:52:08.303Z,96858.72
2023-12-08T14:54:54.152Z,96858.88
2023-12-08T14:57:40.859Z,96866.03
2023-12-08T15:00:26.362Z,96864.41
2023-12-08T15:03:11.844Z,96866.03
2023-12-08T15:06:00.549Z,96861.63
2023-12-08T15:08:46.502Z,96870.88
2023-12-08T15:11:32.315Z,96864.09
2023-12-08T15:14:18.147Z,96857.25
2023-12-08T15:17:03.841Z,96860.19
2023-12-08T15:19:49.716Z,96863.59
2023-12-08T15:22:37.785Z,96868.16
2023-12-08T15:25:25.857Z,96862.94
2023-12-08T15:28:13.041Z,96867.97
2023-12-08T15:30:58.924Z,96867.97
2023-12-08T15:33:44.819Z,96863.59
2023-12-08T15:36:30.894Z,96866.03
2023-12-08T15:39:16.803Z,96868.63
2023-12-08T15:42:02.864Z,96871.41
2023-12-08T15:44:48.723Z,96864.41
2023-12-08T15:47:34.632Z,96865.22
2023-12-08T15:50:20.701Z,96860.66
2023-12-08T15:53:06.280Z,96856.28
2023-12-08T15:55:53.212Z,96867.66
2023-12-08T15:58:42.036Z,96870.25
2023-12-08T16:01:27.658Z,96869.44
2023-12-08T16:04:13.183Z,96880.00
2023-12-08T16:07:00.770Z,96871.25
2023-12-08T16:09:46.615Z,96871.91
2023-12-08T16:12:32.371Z,96880.31
2023-12-08T16:15:18.222Z,96874.16
2023-12-08T16:18:04.126Z,96878.19
2023-12-08T16:20:49.689Z,96879.19
2023-12-08T16:23:35.097Z,96880.81
2023-12-08T16:26:21.299Z,96878.06
2023-12-08T16:29:07.628Z,96880.50
2023-12-08T16:31:53.198Z,96883.72
2023-12-08T16:34:38.612Z,96887.94
2023-12-08T16:37:24.266Z,96887.16
2023-12-08T16:40:13.103Z,96885.19
2023-12-08T16:42:58.552Z,96886.66
2023-12-08T16:45:44.354Z,96888.44
2023-12-08T16:48:30.299Z,96893.63
2023-12-08T16:51:16.392Z,96890.06
2023-12-08T16:54:03.345Z,96896.09
2023-12-08T16:56:49.045Z,96899.31
2023-12-08T16:59:34.935Z,96901.59
2023-12-08T17:02:20.277Z,96904.19
2023-12-08T17:05:08.165Z,96899.16
2023-12-08T17:07:53.767Z,96904.03
2023-12-08T17:10:39.223Z,96909.22
2023-12-08T17:13:24.783Z,96915.09
2023-12-08T17:16:10.384Z,96912.50
2023-12-08T17:18:55.950Z,96916.72
2023-12-08T17:21:41.683Z,96911.53
2023-12-08T17:24:27.816Z,96914.75
2023-12-08T17:27:13.360Z,96923.22
2023-12-08T17:29:58.982Z,96923.88
2023-12-08T17:32:44.762Z,96933.28
2023-12-08T17:35:30.703Z,96936.53
2023-12-08T17:38:17.061Z,96930.34
2023-12-08T17:41:03.301Z,96938.81
2023-12-08T17:43:48.830Z,96940.28
2023-12-08T17:46:34.441Z,96936.69
2023-12-08T17:49:20.162Z,96935.69
2023-12-08T17:52:05.983Z,96935.69
2023-12-08T17:54:53.280Z,96940.75
2023-12-08T17:57:40.694Z,96943.19
2023-12-08T18:00:26.495Z,96938.78
2023-12-08T18:03:12.046Z,96940.41
2023-12-08T18:05:57.911Z,96938.63
2023-12-08T18:08:43.753Z,96932.41
2023-12-08T18:11:29.379Z,96940.09
2023-12-08T18:14:15.086Z,96944.47
2023-12-08T18:17:02.043Z,96943.31
2023-12-08T18:19:47.724Z,96944.31
2023-12-08T18:22:34.920Z,96951.28
2023-12-08T18:25:20.480Z,96951.13
2023-12-08T18:28:26.883Z,96946.91
2023-12-08T18:31:29.065Z,96954.56
2023-12-08T18:34:14.974Z,96955.22
2023-12-08T18:37:00.520Z,96962.03
2023-12-08T18:39:46.237Z,96954.22
2023-12-08T18:42:32.006Z,96952.25
2023-12-08T18:45:17.844Z,96958.25
2023-12-08T18:48:03.613Z,96960.72
2023-12-08T18:50:49.311Z,96959.91
2023-12-08T18:53:36.792Z,96960.88
2023-12-08T18:56:22.402Z,96960.06
2023-12-08T18:59:07.950Z,96961.88
2023-12-08T19:01:53.532Z,96959.28
2023-12-08T19:04:39.105Z,96961.03
2023-12-08T19:07:24.806Z,96958.25
2023-12-08T19:10:10.713Z,96960.88
2023-12-08T19:12:56.695Z,96957.28
2023-12-08T19:15:42.370Z,96958.91
2023-12-08T19:18:28.265Z,96957.94
2023-12-08T19:21:13.971Z,96950.94
2023-12-08T19:23:59.763Z,96956.00
2023-12-08T19:26:45.426Z,96956.00
2023-12-08T19:29:31.613Z,96948.97
2023-12-08T19:32:17.463Z,96955.03
2023-12-08T19:35:03.896Z,96951.41
2023-12-08T19:37:50.023Z,96942.81
2023-12-08T19:40:35.499Z,96950.44
2023-12-08T19:43:20.923Z,96949.47
2023-12-08T19:46:06.934Z,96946.84
2023-12-08T19:48:52.606Z,96954.34
2023-12-08T19:51:38.518Z,96950.91
2023-12-08T19:54:24.225Z,96949.75
2023-12-08T19:57:10.713Z,96951.38
2023-12-08T19:59:57.275Z,96953.03
2023-12-08T20:02:43.011Z,96952.03
2023-12-08T20:05:28.789Z,96958.06
2023-12-08T20:08:14.883Z,96952.03
2023-12-08T20:11:02.168Z,96950.41
2023-12-08T20:13:48.137Z,96952.03
2023-12-08T20:16:36.073Z,96960.47
2023-12-08T20:19:22.560Z,96958.53
2023-12-08T20:22:08.026Z,96965.38
2023-12-08T20:24:53.498Z,96966.03
2023-12-08T20:27:39.348Z,96970.41
2023-12-08T20:30:25.089Z,96966.03
2023-12-08T20:33:12.752Z,96968.63
2023-12-08T20:35:58.717Z,96968.63
2023-12-08T20:38:44.331Z,96978.06
2023-12-08T20:41:30.270Z,96972.84
2023-12-08T20:44:18.197Z,96978.88
2023-12-08T20:47:03.541Z,96988.50
2023-12-08T20:49:49.752Z,96991.09
2023-12-08T20:52:35.714Z,96996.13
2023-12-08T20:55:21.207Z,96997.75
2023-12-08T20:58:06.896Z,97000.19
2023-12-08T21:00:52.598Z,97011.59
2023-12-08T21:03:38.617Z,97005.41
2023-12-08T21:06:24.131Z,97008.97
2023-12-08T21:09:14.467Z,97019.41
2023-12-08T21:12:00.396Z,97021.22
2023-12-08T21:14:45.979Z,97023.63
2023-12-08T21:17:31.641Z,97022.00
2023-12-08T21:20:17.220Z,97015.00
2023-12-08T21:23:03.642Z,97003.78
2023-12-08T21:25:49.208Z,97001.00
2023-12-08T21:28:34.988Z,97010.44
2023-12-08T21:31:20.345Z,96999.84
2023-12-08T21:34:05.900Z,97017.75
2023-12-08T21:36:51.406Z,97011.56
2023-12-08T21:39:36.892Z,97019.38
2023-12-08T21:42:23.228Z,97016.78
2023-12-08T21:45:09.114Z,97024.41
2023-12-08T21:47:54.942Z,97011.22
2023-12-08T21:50:40.875Z,97014.66
2023-12-08T21:53:26.444Z,97019.69
2023-12-08T21:56:11.987Z,97013.50
2023-12-08T21:58:57.423Z,97024.91
2023-12-08T22:01:45.859Z,97016.09
2023-12-08T22:04:31.317Z,97015.13
2023-12-08T22:07:17.445Z,97024.41
2023-12-08T22:10:03.803Z,97039.84
2023-12-08T22:12:49.278Z,97038.88
2023-12-08T22:15:34.588Z,97043.13
2023-12-08T22:18:20.018Z,97045.56
2023-12-08T22:21:05.740Z,97036.75
2023-12-08T22:23:51.612Z,97041.78
2023-12-08T22:26:37.278Z,97046.81
2023-12-08T22:29:22.933Z,97051.72
2023-12-08T22:32:10.109Z,97045.69
2023-12-08T22:34:55.826Z,97044.88
2023-12-08T22:37:41.209Z,97050.88
2023-12-08T22:40:28.517Z,97050.88
2023-12-08T22:43:14.329Z,97052.50
2023-12-08T22:45:59.784Z,97060.34
2023-12-08T22:48:45.432Z,97061.78
2023-12-08T22:51:42.873Z,97061.66
2023-12-08T22:54:34.235Z,97065.88
2023-12-08T22:57:19.833Z,97065.69
2023-12-08T23:00:08.041Z,97067.34
2023-12-08T23:02:54.577Z,97066.31
2023-12-08T23:05:40.570Z,97061.94
2023-12-08T23:08:26.218Z,97065.53
2023-12-08T23:11:11.757Z,97062.75
2023-12-08T23:13:57.189Z,97058.19
2023-12-08T23:16:43.021Z,97065.19
2023-12-08T23:19:28.747Z,97052.16
2023-12-08T23:22:14.337Z,97051.16
2023-12-08T23:24:59.843Z,97052.00
2023-12-08T23:27:45.290Z,97050.38
2023-12-08T23:30:30.736Z,97052.97
2023-12-08T23:33:16.340Z,97064.19
2023-12-08T23:36:01.904Z,97058.00
2023-12-08T23:38:48.619Z,97058.84
2023-12-08T23:41:34.649Z,97062.25
2023-12-08T23:44:21.259Z,97067.47
2023-12-08T23:47:06.869Z,97062.41
2023-12-08T23:49:52.375Z,97060.63
2023-12-08T23:52:38.103Z,97062.25
2023-12-08T23:55:23.511Z,97061.25
2023-12-08T23:58:08.779Z,97066.47
